createdAt,value
2018-11-14T00:01:01.122Z,7.90
2018-11-14T00:03:29.773Z,7.90
2018-11-14T00:05:58.429Z,8.00
2018-11-14T00:08:27.053Z,7.90
2018-11-14T00:10:55.689Z,7.90
2018-11-14T00:13:24.310Z,7.90
2018-11-14T00:15:52.953Z,7.80
2018-11-14T00:18:21.605Z,7.80
2018-11-14T00:20:50.237Z,7.80
2018-11-14T00:23:18.898Z,7.90
2018-11-14T00:25:47.550Z,7.90
2018-11-14T00:28:16.188Z,7.90
2018-11-14T00:30:44.816Z,7.80
2018-11-14T00:33:13.649Z,7.70
2018-11-14T00:35:42.116Z,7.60
2018-11-14T00:38:10.730Z,7.60
2018-11-14T00:40:39.370Z,7.50
2018-11-14T00:43:08.005Z,7.40
2018-11-14T00:45:36.647Z,7.30
2018-11-14T00:48:05.463Z,7.20
2018-11-14T00:50:34.097Z,7.10
2018-11-14T00:53:02.762Z,7.00
2018-11-14T00:55:31.434Z,6.90
2018-11-14T00:58:00.070Z,6.90
2018-11-14T01:00:28.757Z,6.90
2018-11-14T01:02:57.394Z,6.90
2018-11-14T01:05:26.024Z,6.80
2018-11-14T01:07:54.694Z,6.80
2018-11-14T01:10:23.359Z,6.80
2018-11-14T01:12:52.346Z,6.80
2018-11-14T01:15:22.255Z,6.80
2018-11-14T01:17:50.884Z,6.80
2018-11-14T01:20:20.970Z,6.90
2018-11-14T01:22:49.748Z,6.90
2018-11-14T01:25:18.726Z,7.00
2018-11-14T01:27:47.640Z,7.10
2018-11-14T01:30:19.101Z,7.20
2018-11-14T01:32:48.289Z,7.20
2018-11-14T01:35:17.262Z,7.30
2018-11-14T01:37:45.893Z,7.30
2018-11-14T01:40:18.112Z,7.40
2018-11-14T01:42:48.137Z,7.40
2018-11-14T01:45:16.797Z,7.40
2018-11-14T01:47:45.482Z,7.40
2018-11-14T01:50:14.160Z,7.50
2018-11-14T01:52:42.802Z,7.60
2018-11-14T01:55:13.190Z,7.70
2018-11-14T01:57:41.821Z,7.70
2018-11-14T02:00:12.672Z,7.70
2018-11-14T02:02:41.505Z,7.80
2018-11-14T02:05:10.584Z,7.80
2018-11-14T02:07:39.270Z,7.80
2018-11-14T02:10:11.264Z,7.80
2018-11-14T02:12:40.353Z,7.70
2018-11-14T02:15:12.056Z,7.60
2018-11-14T02:17:40.889Z,7.60
2018-11-14T02:20:10.107Z,7.40
2018-11-14T02:22:38.780Z,7.40
2018-11-14T02:25:08.025Z,7.30
2018-11-14T02:27:36.686Z,7.20
2018-11-14T02:30:09.382Z,7.00
2018-11-14T02:32:38.049Z,7.00
2018-11-14T02:35:07.027Z,6.90
2018-11-14T02:37:35.646Z,6.90
2018-11-14T02:40:04.918Z,6.80
2018-11-14T02:42:33.574Z,6.70
2018-11-14T02:45:02.207Z,6.70
2018-11-14T02:47:30.872Z,6.60
2018-11-14T02:49:59.485Z,6.60
2018-11-14T02:52:28.118Z,6.50
2018-11-14T02:54:56.754Z,6.50
2018-11-14T02:57:25.414Z,6.40
2018-11-14T02:59:54.478Z,6.40
2018-11-14T03:02:23.542Z,6.40
2018-11-14T03:04:52.171Z,6.40
2018-11-14T03:07:20.841Z,6.30
2018-11-14T03:09:49.490Z,6.30
2018-11-14T03:12:18.149Z,6.20
2018-11-14T03:14:46.779Z,6.20
2018-11-14T03:17:15.692Z,6.20
2018-11-14T03:19:45.655Z,6.20
2018-11-14T03:22:14.296Z,6.10
2018-11-14T03:24:42.919Z,6.20
2018-11-14T03:27:11.561Z,6.20
2018-11-14T03:29:40.236Z,6.20
2018-11-14T03:32:08.883Z,6.10
2018-11-14T03:34:37.526Z,6.10
2018-11-14T03:37:06.452Z,6.10
2018-11-14T03:39:35.097Z,6.10
2018-11-14T03:42:03.758Z,6.10
2018-11-14T03:44:32.400Z,6.10
2018-11-14T03:47:01.058Z,6.10
2018-11-14T03:49:29.750Z,6.10
2018-11-14T03:51:58.421Z,6.10
2018-11-14T03:54:27.065Z,6.10
2018-11-14T03:56:55.768Z,6.10
2018-11-14T03:59:24.414Z,6.10
2018-11-14T04:01:53.087Z,6.00
2018-11-14T04:04:21.736Z,6.00
2018-11-14T04:06:50.374Z,5.90
2018-11-14T04:09:19.095Z,5.90
2018-11-14T04:11:47.694Z,5.80
2018-11-14T04:14:16.351Z,5.80
2018-11-14T04:16:45.068Z,5.80
2018-11-14T04:19:13.698Z,5.80
2018-11-14T04:21:42.351Z,5.70
2018-11-14T04:24:11.002Z,5.70
2018-11-14T04:26:39.842Z,5.70
2018-11-14T04:29:08.505Z,5.60
2018-11-14T04:31:37.324Z,5.60
2018-11-14T04:34:06.184Z,5.50
2018-11-14T04:36:34.855Z,5.40
2018-11-14T04:39:04.695Z,5.40
2018-11-14T04:41:33.341Z,5.40
2018-11-14T04:44:02.003Z,5.40
2018-11-14T04:46:30.645Z,5.30
2018-11-14T04:48:59.300Z,5.30
2018-11-14T04:51:27.930Z,5.30
2018-11-14T04:53:56.586Z,5.30
2018-11-14T04:56:25.292Z,5.20
2018-11-14T04:58:53.969Z,5.30
2018-11-14T05:01:22.615Z,5.30
2018-11-14T05:03:51.255Z,5.30
2018-11-14T05:06:19.915Z,5.30
2018-11-14T05:08:48.627Z,5.30
2018-11-14T05:11:17.224Z,5.30
2018-11-14T05:13:45.942Z,5.50
2018-11-14T05:16:14.635Z,5.60
2018-11-14T05:18:43.259Z,5.80
2018-11-14T05:21:11.912Z,5.90
2018-11-14T05:23:40.565Z,6.00
2018-11-14T05:26:09.220Z,6.00
2018-11-14T05:28:38.004Z,6.00
2018-11-14T05:31:06.657Z,6.10
2018-11-14T05:33:35.342Z,6.00
2018-11-14T05:36:03.980Z,6.10
2018-11-14T05:38:32.720Z,6.10
2018-11-14T05:41:01.353Z,6.00
2018-11-14T05:43:29.990Z,6.10
2018-11-14T05:45:58.644Z,6.10
2018-11-14T05:48:27.360Z,6.10
2018-11-14T05:50:55.985Z,6.10
2018-11-14T05:53:24.647Z,6.10
2018-11-14T05:55:53.300Z,6.10
2018-11-14T05:58:21.977Z,6.20
2018-11-14T06:00:50.672Z,6.20
2018-11-14T06:03:19.330Z,6.30
2018-11-14T06:05:48.004Z,6.30
2018-11-14T06:08:16.660Z,6.40
2018-11-14T06:10:45.335Z,6.50
2018-11-14T06:13:13.991Z,6.50
2018-11-14T06:15:42.685Z,6.50
2018-11-14T06:18:11.363Z,6.60
2018-11-14T06:20:40.024Z,6.60
2018-11-14T06:23:08.687Z,6.60
2018-11-14T06:25:38.290Z,6.70
2018-11-14T06:28:08.094Z,6.70
2018-11-14T06:30:37.280Z,6.70
2018-11-14T06:33:06.987Z,6.80
2018-11-14T06:35:35.700Z,6.80
2018-11-14T06:38:04.974Z,6.90
2018-11-14T06:40:33.865Z,6.90
2018-11-14T06:43:02.523Z,7.00
2018-11-14T06:45:32.358Z,7.00
2018-11-14T06:48:01.762Z,7.00
2018-11-14T06:50:30.468Z,7.00
2018-11-14T06:53:00.667Z,7.00
2018-11-14T06:55:29.377Z,7.10
2018-11-14T06:57:58.028Z,7.10
2018-11-14T07:00:27.988Z,7.10
2018-11-14T07:02:57.352Z,7.10
2018-11-14T07:05:26.039Z,7.00
2018-11-14T07:07:54.684Z,7.00
2018-11-14T07:10:24.664Z,7.00
2018-11-14T07:12:53.381Z,7.10
2018-11-14T07:15:23.038Z,7.40
2018-11-14T07:17:52.703Z,7.80
2018-11-14T07:20:24.400Z,8.10
2018-11-14T07:22:53.036Z,8.40
2018-11-14T07:25:21.758Z,8.70
2018-11-14T07:27:50.407Z,8.90
2018-11-14T07:30:20.365Z,9.20
2018-11-14T07:32:50.383Z,9.50
2018-11-14T07:35:19.483Z,9.80
2018-11-14T07:38:58.773Z,10.10
2018-11-14T07:41:30.021Z,10.40
2018-11-14T07:43:58.720Z,10.80
2018-11-14T07:46:29.591Z,10.90
2018-11-14T07:48:58.299Z,11.00
2018-11-14T07:51:26.903Z,11.20
2018-11-14T07:53:55.814Z,11.50
2018-11-14T07:56:24.440Z,11.70
2018-11-14T07:58:53.135Z,11.80
2018-11-14T08:01:21.809Z,11.90
2018-11-14T08:03:50.522Z,12.10
2018-11-14T08:06:19.381Z,12.10
2018-11-14T08:08:48.158Z,12.20
2018-11-14T08:11:16.802Z,12.20
2018-11-14T08:13:46.752Z,12.30
2018-11-14T08:16:15.530Z,12.40
2018-11-14T08:18:44.244Z,12.40
2018-11-14T08:21:12.871Z,12.60
2018-11-14T08:23:41.555Z,12.70
2018-11-14T08:26:10.170Z,12.90
2018-11-14T08:28:38.835Z,13.00
2018-11-14T08:31:07.491Z,13.20
2018-11-14T08:33:36.148Z,13.30
2018-11-14T08:36:05.072Z,13.60
2018-11-14T08:38:34.534Z,13.70
2018-11-14T08:41:03.197Z,13.60
2018-11-14T08:43:31.832Z,13.40
2018-11-14T08:46:00.480Z,13.20
2018-11-14T08:48:29.162Z,13.20
2018-11-14T08:50:57.824Z,13.30
2018-11-14T08:53:26.460Z,13.20
2018-11-14T08:55:55.126Z,13.20
2018-11-14T08:58:23.790Z,13.20
2018-11-14T09:00:52.446Z,13.20
2018-11-14T09:03:21.083Z,13.10
2018-11-14T09:05:49.735Z,13.30
2018-11-14T09:08:18.489Z,13.40
2018-11-14T09:10:47.199Z,13.60
2018-11-14T09:13:16.740Z,13.60
2018-11-14T09:15:45.390Z,13.70
2018-11-14T09:18:14.093Z,14.00
2018-11-14T09:20:43.545Z,14.10
2018-11-14T09:23:12.194Z,14.40
2018-11-14T09:25:40.890Z,14.60
2018-11-14T09:28:09.565Z,14.80
2018-11-14T09:30:38.215Z,14.90
2018-11-14T09:33:06.910Z,14.90
2018-11-14T09:35:35.501Z,15.00
2018-11-14T09:38:04.195Z,15.10
2018-11-14T09:40:32.828Z,15.10
2018-11-14T09:43:01.466Z,15.10
2018-11-14T09:45:30.701Z,15.20
2018-11-14T09:47:59.336Z,15.40
2018-11-14T09:50:31.040Z,15.70
2018-11-14T09:53:01.925Z,15.80
2018-11-14T09:55:30.530Z,15.80
2018-11-14T09:57:59.164Z,15.90
2018-11-14T10:00:29.056Z,16.00
2018-11-14T10:03:01.637Z,16.00
2018-11-14T10:05:30.221Z,16.00
2018-11-14T10:07:58.803Z,16.20
2018-11-14T10:10:27.426Z,16.10
2018-11-14T10:12:56.061Z,16.00
2018-11-14T10:15:25.074Z,16.00
2018-11-14T10:17:53.690Z,16.00
2018-11-14T10:20:23.467Z,16.10
2018-11-14T10:22:52.331Z,16.20
2018-11-14T10:25:21.077Z,16.30
2018-11-14T10:27:50.276Z,16.20
2018-11-14T10:30:23.284Z,15.90
2018-11-14T10:32:52.395Z,15.80
2018-11-14T10:35:21.049Z,15.80
2018-11-14T10:37:49.676Z,16.00
2018-11-14T10:40:21.008Z,16.00
2018-11-14T10:42:49.708Z,15.80
2018-11-14T10:45:19.806Z,15.60
2018-11-14T10:47:48.444Z,15.50
2018-11-14T10:50:19.337Z,15.60
2018-11-14T10:52:47.996Z,15.50
2018-11-14T10:55:17.113Z,15.30
2018-11-14T10:57:45.832Z,15.10
2018-11-14T11:00:21.245Z,15.00
2018-11-14T11:02:55.295Z,14.80
2018-11-14T11:06:31.118Z,14.70
2018-11-14T11:09:05.257Z,14.50
2018-11-14T11:11:39.528Z,14.50
2018-11-14T11:14:13.708Z,14.70
2018-11-14T11:16:48.808Z,14.60
2018-11-14T11:19:20.984Z,14.60
2018-11-14T11:21:49.666Z,14.40
2018-11-14T11:24:19.548Z,14.40
2018-11-14T11:26:48.182Z,14.30
2018-11-14T11:29:16.819Z,14.20
2018-11-14T11:31:45.626Z,14.10
2018-11-14T11:34:14.258Z,14.00
2018-11-14T11:36:42.904Z,13.90
2018-11-14T11:39:13.491Z,13.80
2018-11-14T11:41:42.717Z,13.70
2018-11-14T11:44:11.523Z,13.60
2018-11-14T11:46:41.030Z,13.60
2018-11-14T11:49:10.092Z,13.50
2018-11-14T11:51:38.726Z,13.50
2018-11-14T11:54:07.816Z,13.50
2018-11-14T11:56:36.686Z,13.60
2018-11-14T11:59:06.162Z,13.60
2018-11-14T12:01:34.871Z,13.50
2018-11-14T12:04:03.520Z,13.40
2018-11-14T12:06:32.243Z,13.40
2018-11-14T12:09:00.762Z,13.50
2018-11-14T12:11:29.409Z,13.50
2018-11-14T12:13:58.268Z,13.60
2018-11-14T12:16:26.826Z,13.70
2018-11-14T12:18:55.462Z,13.80
2018-11-14T12:21:24.101Z,13.90
2018-11-14T12:23:52.745Z,14.10
2018-11-14T12:26:21.365Z,14.20
2018-11-14T12:28:49.994Z,14.20
2018-11-14T12:31:18.692Z,14.10
2018-11-14T12:33:47.335Z,14.20
2018-11-14T12:36:16.020Z,14.10
2018-11-14T12:38:45.112Z,14.10
2018-11-14T12:41:13.924Z,14.10
2018-11-14T12:43:42.556Z,14.20
2018-11-14T12:46:11.214Z,14.30
2018-11-14T12:48:39.993Z,14.30
2018-11-14T12:51:08.626Z,14.40
2018-11-14T12:53:37.255Z,14.40
2018-11-14T12:56:05.887Z,14.50
2018-11-14T12:58:34.807Z,14.50
2018-11-14T13:01:03.457Z,14.20
2018-11-14T13:03:32.068Z,14.00
2018-11-14T13:06:00.698Z,13.80
2018-11-14T13:08:29.353Z,13.70
2018-11-14T13:10:57.966Z,13.60
2018-11-14T13:13:32.139Z,13.50
2018-11-14T13:16:00.845Z,13.40
2018-11-14T13:18:29.466Z,13.30
2018-11-14T13:20:58.100Z,13.20
2018-11-14T13:23:26.751Z,13.10
2018-11-14T13:25:55.369Z,13.00
2018-11-14T13:28:24.015Z,13.00
2018-11-14T13:30:52.629Z,13.00
2018-11-14T13:33:21.284Z,13.00
2018-11-14T13:35:50.002Z,13.10
2018-11-14T13:38:18.642Z,13.20
2018-11-14T13:40:47.282Z,13.40
2018-11-14T13:43:15.932Z,13.40
2018-11-14T13:45:44.600Z,13.40
2018-11-14T13:48:13.198Z,13.40
2018-11-14T13:50:42.037Z,13.40
2018-11-14T13:53:10.456Z,13.40
2018-11-14T13:55:39.082Z,13.50
2018-11-14T13:58:07.710Z,13.50
2018-11-14T14:00:36.552Z,13.40
2018-11-14T14:03:05.519Z,13.30
2018-11-14T14:05:34.134Z,13.20
2018-11-14T14:08:02.767Z,13.10
2018-11-14T14:10:31.393Z,13.00
2018-11-14T14:13:00.020Z,13.00
2018-11-14T14:15:28.846Z,12.90
2018-11-14T14:17:57.498Z,12.80
2018-11-14T14:20:26.118Z,12.80
2018-11-14T14:22:54.880Z,12.80
2018-11-14T14:25:23.868Z,12.70
2018-11-14T14:27:52.525Z,12.60
2018-11-14T14:30:22.302Z,12.60
2018-11-14T14:32:51.054Z,12.60
2018-11-14T14:35:20.901Z,12.60
2018-11-14T14:37:49.589Z,12.70
2018-11-14T14:40:22.358Z,12.70
2018-11-14T14:42:51.366Z,12.70
2018-11-14T14:45:21.465Z,12.70
2018-11-14T14:47:50.114Z,12.60
2018-11-14T14:50:19.462Z,12.60
2018-11-14T14:52:48.256Z,12.50
2018-11-14T14:55:19.713Z,12.40
2018-11-14T14:57:48.734Z,12.40
2018-11-14T15:00:25.766Z,12.40
2018-11-14T15:02:54.430Z,12.50
2018-11-14T15:05:23.066Z,12.50
2018-11-14T15:07:51.727Z,12.40
2018-11-14T15:10:21.530Z,12.30
2018-11-14T15:12:50.179Z,12.10
2018-11-14T15:15:19.329Z,12.00
2018-11-14T15:17:48.040Z,11.90
2018-11-14T15:20:19.967Z,11.90
2018-11-14T15:22:48.746Z,11.90
2018-11-14T15:25:18.770Z,11.80
2018-11-14T15:27:48.696Z,11.70
2018-11-14T15:30:28.018Z,11.60
2018-11-14T15:32:56.810Z,11.50
2018-11-14T15:35:25.491Z,11.40
2018-11-14T15:37:54.117Z,11.30
2018-11-14T15:40:24.343Z,11.20
2018-11-14T15:42:53.054Z,11.10
2018-11-14T15:45:23.096Z,11.10
2018-11-14T15:47:51.742Z,11.00
2018-11-14T15:50:21.694Z,10.90
2018-11-14T15:52:51.209Z,10.80
2018-11-14T15:55:20.510Z,10.70
2018-11-14T15:57:49.182Z,10.70
2018-11-14T16:00:22.365Z,10.60
2018-11-14T16:02:51.001Z,10.60
2018-11-14T16:05:20.901Z,10.50
2018-11-14T16:07:50.692Z,10.40
2018-11-14T16:10:20.592Z,10.40
2018-11-14T16:12:49.218Z,10.40
2018-11-14T16:15:19.398Z,10.40
2018-11-14T16:17:48.041Z,10.40
2018-11-14T16:20:18.116Z,10.30
2018-11-14T16:22:46.750Z,10.30
2018-11-14T16:25:16.603Z,10.20
2018-11-14T16:27:46.105Z,10.20
2018-11-14T16:30:46.746Z,10.10
2018-11-14T16:33:15.383Z,10.10
2018-11-14T16:35:44.002Z,10.00
2018-11-14T16:38:12.732Z,10.00
2018-11-14T16:40:41.271Z,10.00
2018-11-14T16:43:09.935Z,10.00
2018-11-14T16:45:38.539Z,10.00
2018-11-14T16:48:07.175Z,10.00
2018-11-14T16:50:35.798Z,10.00
2018-11-14T16:53:04.509Z,10.00
2018-11-14T16:55:33.181Z,10.00
2018-11-14T16:58:01.775Z,10.00
2018-11-14T17:00:31.474Z,10.00
2018-11-14T17:03:00.367Z,10.00
2018-11-14T17:05:30.158Z,10.00
2018-11-14T17:07:58.808Z,10.00
2018-11-14T17:10:27.518Z,10.00
2018-11-14T17:12:57.550Z,10.00
2018-11-14T17:15:26.858Z,10.00
2018-11-14T17:17:55.493Z,10.00
2018-11-14T17:20:24.230Z,10.00
2018-11-14T17:22:53.801Z,10.00
2018-11-14T17:25:22.488Z,10.00
2018-11-14T17:27:51.122Z,10.00
2018-11-14T17:30:22.048Z,10.00
2018-11-14T17:32:50.915Z,10.00
2018-11-14T17:35:19.585Z,9.90
2018-11-14T17:37:48.399Z,9.90
2018-11-14T17:40:20.312Z,9.90
2018-11-14T17:42:49.906Z,9.80
2018-11-14T17:45:20.408Z,9.80
2018-11-14T17:47:49.480Z,9.80
2018-11-14T17:50:23.412Z,9.80
2018-11-14T17:52:52.886Z,9.70
2018-11-14T17:55:22.271Z,9.70
2018-11-14T17:57:50.920Z,9.70
2018-11-14T18:00:20.912Z,9.70
2018-11-14T18:02:49.596Z,9.60
2018-11-14T18:05:19.407Z,9.60
2018-11-14T18:07:48.804Z,9.60
2018-11-14T18:10:18.723Z,9.60
2018-11-14T18:12:48.313Z,9.60
2018-11-14T18:15:16.984Z,9.50
2018-11-14T18:17:46.104Z,9.50
2018-11-14T18:20:16.127Z,9.60
2018-11-14T18:22:45.415Z,9.60
2018-11-14T18:25:14.524Z,9.60
2018-11-14T18:27:43.131Z,9.60
2018-11-14T18:30:16.738Z,9.60
2018-11-14T18:32:45.322Z,9.60
2018-11-14T18:35:15.160Z,9.60
2018-11-14T18:37:44.460Z,9.60
2018-11-14T18:40:14.611Z,9.60
2018-11-14T18:42:43.257Z,9.60
2018-11-14T18:45:14.851Z,9.60
2018-11-14T18:47:43.944Z,9.60
2018-11-14T18:50:13.646Z,9.60
2018-11-14T18:52:42.938Z,9.60
2018-11-14T18:55:12.663Z,9.60
2018-11-14T18:57:41.774Z,9.60
2018-11-14T19:00:14.018Z,9.60
2018-11-14T19:02:43.114Z,9.60
2018-11-14T19:05:12.286Z,9.60
2018-11-14T19:07:41.294Z,9.60
2018-11-14T19:10:11.480Z,9.60
2018-11-14T19:12:40.739Z,9.60
2018-11-14T19:15:12.030Z,9.60
2018-11-14T19:17:40.952Z,9.60
2018-11-14T19:20:11.798Z,9.50
2018-11-14T19:22:40.587Z,9.50
2018-11-14T19:25:11.006Z,9.60
2018-11-14T19:27:39.804Z,9.60
2018-11-14T19:30:10.636Z,9.70
2018-11-14T19:32:39.271Z,9.60
2018-11-14T19:35:09.471Z,9.70
2018-11-14T19:37:38.293Z,9.80
2018-11-14T19:40:09.194Z,9.70
2018-11-14T19:42:37.841Z,9.70
2018-11-14T19:45:09.104Z,9.60
2018-11-14T19:47:37.971Z,9.60
2018-11-14T19:50:08.580Z,9.50
2018-11-14T19:52:37.509Z,9.40
2018-11-14T19:55:07.246Z,9.40
2018-11-14T19:57:35.882Z,9.30
2018-11-14T20:00:07.476Z,9.30
2018-11-14T20:02:36.092Z,9.20
2018-11-14T20:05:05.911Z,9.10
2018-11-14T20:07:34.864Z,9.00
2018-11-14T20:10:03.590Z,9.00
2018-11-14T20:12:32.301Z,9.00
2018-11-14T20:15:00.949Z,9.00
2018-11-14T20:17:29.564Z,8.90
2018-11-14T20:19:58.231Z,8.90
2018-11-14T20:22:26.823Z,8.80
2018-11-14T20:24:55.452Z,8.70
2018-11-14T20:27:24.082Z,8.70
2018-11-14T20:29:52.759Z,8.70
2018-11-14T20:32:21.377Z,8.80
2018-11-14T20:34:50.027Z,8.70
2018-11-14T20:37:18.722Z,8.70
2018-11-14T20:39:47.310Z,8.60
2018-11-14T20:42:16.020Z,8.60
2018-11-14T20:44:44.676Z,8.50
2018-11-14T20:47:13.294Z,8.40
2018-11-14T20:49:42.039Z,8.40
2018-11-14T20:52:10.650Z,8.30
2018-11-14T20:54:39.273Z,8.40
2018-11-14T20:57:07.912Z,8.50
2018-11-14T20:59:36.550Z,8.40
2018-11-14T21:02:05.536Z,8.40
2018-11-14T21:04:34.154Z,8.40
2018-11-14T21:07:02.815Z,8.40
2018-11-14T21:09:31.426Z,8.40
2018-11-14T21:12:00.052Z,8.40
2018-11-14T21:14:28.708Z,8.40
2018-11-14T21:16:57.348Z,8.40
2018-11-14T21:19:26.053Z,8.40
2018-11-14T21:21:54.691Z,8.50
2018-11-14T21:24:23.319Z,8.40
2018-11-14T21:26:51.955Z,8.40
2018-11-14T21:29:20.597Z,8.40
2018-11-14T21:31:49.222Z,8.40
2018-11-14T21:34:17.847Z,8.40
2018-11-14T21:36:46.501Z,8.40
2018-11-14T21:39:15.139Z,8.40
2018-11-14T21:41:44.357Z,8.40
2018-11-14T21:44:13.006Z,8.40
2018-11-14T21:46:41.652Z,8.30
2018-11-14T21:49:15.713Z,8.20
2018-11-14T21:51:44.355Z,8.10
2018-11-14T21:54:12.983Z,7.90
2018-11-14T21:56:41.622Z,7.90
2018-11-14T21:59:10.249Z,7.80
2018-11-14T22:01:38.898Z,7.70
2018-11-14T22:04:07.549Z,7.60
2018-11-14T22:06:36.202Z,7.50
2018-11-14T22:09:08.010Z,7.50
2018-11-14T22:11:36.888Z,7.40
2018-11-14T22:14:05.588Z,7.40
2018-11-14T22:16:34.247Z,7.30
2018-11-14T22:19:03.531Z,7.30
2018-11-14T22:21:32.841Z,7.20
2018-11-14T22:24:01.731Z,7.20
2018-11-14T22:26:30.384Z,7.10
2018-11-14T22:28:59.106Z,7.10
2018-11-14T22:31:27.754Z,7.00
2018-11-14T22:33:56.392Z,7.00
2018-11-14T22:36:25.035Z,7.00
2018-11-14T22:38:53.676Z,6.90
2018-11-14T22:41:22.318Z,6.90
2018-11-14T22:43:50.955Z,7.00
2018-11-14T22:46:19.587Z,7.00
2018-11-14T22:48:48.222Z,7.00
2018-11-14T22:51:16.854Z,7.00
2018-11-14T22:53:45.487Z,6.90
2018-11-14T22:56:14.142Z,6.90
2018-11-14T22:58:42.823Z,6.80
2018-11-14T23:01:11.419Z,6.80
2018-11-14T23:03:40.055Z,6.70
2018-11-14T23:06:08.694Z,6.70
2018-11-14T23:08:37.323Z,6.70
2018-11-14T23:11:05.976Z,6.70
2018-11-14T23:13:34.650Z,6.60
2018-11-14T23:16:03.238Z,6.60
2018-11-14T23:18:31.884Z,6.50
2018-11-14T23:21:00.540Z,6.60
2018-11-14T23:23:29.172Z,6.60
2018-11-14T23:25:57.901Z,6.60
2018-11-14T23:28:26.521Z,6.60
2018-11-14T23:30:55.170Z,6.70
2018-11-14T23:33:23.798Z,6.60
2018-11-14T23:35:52.461Z,6.60
2018-11-14T23:38:21.107Z,6.60
2018-11-14T23:40:49.736Z,6.60
2018-11-14T23:43:18.378Z,6.50
2018-11-14T23:45:47.006Z,6.40
2018-11-14T23:48:15.650Z,6.40
2018-11-14T23:50:44.315Z,6.40
2018-11-14T23:53:12.946Z,6.30
2018-11-14T23:55:41.580Z,6.30
2018-11-14T23:58:10.220Z,6.30
